sensor_id;sensor_type;location;lat;lon;timestamp;temperature;humidity
32536;DHT22;18974;50.838;4.636;2023-04-15T00:00:06;10.20;99.90
32536;DHT22;18974;50.838;4.636;2023-04-15T00:02:32;10.20;99.90
32536;DHT22;18974;50.838;4.636;2023-04-15T00:04:58;10.20;99.90
32536;DHT22;18974;50.838;4.636;2023-04-15T00:07:23;10.30;99.90
32536;DHT22;18974;50.838;4.636;2023-04-15T00:09:49;10.20;99.90
32536;DHT22;18974;50.838;4.636;2023-04-15T00:12:14;10.30;99.90
32536;DHT22;18974;50.838;4.636;2023-04-15T00:14:40;10.30;99.90
32536;DHT22;18974;50.838;4.636;2023-04-15T00:17:06;10.10;99.90
32536;DHT22;18974;50.838;4.636;2023-04-15T00:19:31;10.10;99.90
32536;DHT22;18974;50.838;4.636;2023-04-15T00:21:58;10.30;99.90
32536;DHT22;18974;50.838;4.636;2023-04-15T00:24:24;10.30;99.90
32536;DHT22;18974;50.838;4.636;2023-04-15T00:26:49;10.30;99.90
32536;DHT22;18974;50.838;4.636;2023-04-15T00:29:15;10.20;99.90
32536;DHT22;18974;50.838;4.636;2023-04-15T00:31:41;10.20;99.90
32536;DHT22;18974;50.838;4.636;2023-04-15T00:34:06;10.10;99.90
32536;DHT22;18974;50.838;4.636;2023-04-15T00:36:32;10.20;99.90
32536;DHT22;18974;50.838;4.636;2023-04-15T00:38:59;10.20;99.90
32536;DHT22;18974;50.838;4.636;2023-04-15T00:41:25;10.20;99.90
32536;DHT22;18974;50.838;4.636;2023-04-15T00:43:51;10.10;99.90
32536;DHT22;18974;50.838;4.636;2023-04-15T00:46:18;10.20;99.90
32536;DHT22;18974;50.838;4.636;2023-04-15T00:48:45;10.00;99.90
32536;DHT22;18974;50.838;4.636;2023-04-15T00:51:15;10.10;99.90
32536;DHT22;18974;50.838;4.636;2023-04-15T00:53:40;10.10;99.90
32536;DHT22;18974;50.838;4.636;2023-04-15T00:56:06;10.10;99.90
32536;DHT22;18974;50.838;4.636;2023-04-15T00:58:32;10.10;99.90
32536;DHT22;18974;50.838;4.636;2023-04-15T01:00:58;10.10;99.90
32536;DHT22;18974;50.838;4.636;2023-04-15T01:03:24;10.20;99.90
32536;DHT22;18974;50.838;4.636;2023-04-15T01:05:50;10.10;99.90
32536;DHT22;18974;50.838;4.636;2023-04-15T01:08:28;10.10;99.90
32536;DHT22;18974;50.838;4.636;2023-04-15T01:11:00;10.10;99.90
32536;DHT22;18974;50.838;4.636;2023-04-15T01:13:26;10.10;99.90
32536;DHT22;18974;50.838;4.636;2023-04-15T01:15:52;10.00;99.90
32536;DHT22;18974;50.838;4.636;2023-04-15T01:18:18;10.10;99.90
32536;DHT22;18974;50.838;4.636;2023-04-15T01:20:45;10.10;99.90
32536;DHT22;18974;50.838;4.636;2023-04-15T01:23:11;9.90;99.90
32536;DHT22;18974;50.838;4.636;2023-04-15T01:25:37;10.00;99.90
32536;DHT22;18974;50.838;4.636;2023-04-15T01:28:04;9.90;99.90
32536;DHT22;18974;50.838;4.636;2023-04-15T01:30:33;9.80;99.90
32536;DHT22;18974;50.838;4.636;2023-04-15T01:32:59;9.80;99.90
32536;DHT22;18974;50.838;4.636;2023-04-15T01:35:24;9.80;99.90
32536;DHT22;18974;50.838;4.636;2023-04-15T01:37:52;9.90;99.90
32536;DHT22;18974;50.838;4.636;2023-04-15T01:40:18;9.90;99.90
32536;DHT22;18974;50.838;4.636;2023-04-15T01:42:45;9.90;99.90
32536;DHT22;18974;50.838;4.636;2023-04-15T01:45:11;9.90;99.90
32536;DHT22;18974;50.838;4.636;2023-04-15T01:47:37;9.90;99.90
32536;DHT22;18974;50.838;4.636;2023-04-15T01:50:03;9.90;99.90
32536;DHT22;18974;50.838;4.636;2023-04-15T01:52:29;9.90;99.90
32536;DHT22;18974;50.838;4.636;2023-04-15T01:54:55;9.90;99.90
32536;DHT22;18974;50.838;4.636;2023-04-15T01:57:21;9.90;99.90
32536;DHT22;18974;50.838;4.636;2023-04-15T01:59:46;9.90;99.90
32536;DHT22;18974;50.838;4.636;2023-04-15T02:02:12;9.90;99.90
32536;DHT22;18974;50.838;4.636;2023-04-15T02:04:37;9.80;99.90
32536;DHT22;18974;50.838;4.636;2023-04-15T02:07:03;9.80;99.90
32536;DHT22;18974;50.838;4.636;2023-04-15T02:09:29;9.70;99.90
32536;DHT22;18974;50.838;4.636;2023-04-15T02:11:54;9.60;99.90
32536;DHT22;18974;50.838;4.636;2023-04-15T02:14:20;9.70;99.90
32536;DHT22;18974;50.838;4.636;2023-04-15T02:16:46;9.70;99.90
32536;DHT22;18974;50.838;4.636;2023-04-15T02:19:12;9.70;99.90
32536;DHT22;18974;50.838;4.636;2023-04-15T02:21:38;9.70;99.90
32536;DHT22;18974;50.838;4.636;2023-04-15T02:24:04;9.70;99.90
32536;DHT22;18974;50.838;4.636;2023-04-15T02:26:30;9.60;99.90
32536;DHT22;18974;50.838;4.636;2023-04-15T02:28:59;9.70;99.90
32536;DHT22;18974;50.838;4.636;2023-04-15T02:31:25;9.70;99.90
32536;DHT22;18974;50.838;4.636;2023-04-15T02:33:50;9.70;99.90
32536;DHT22;18974;50.838;4.636;2023-04-15T02:36:16;9.70;99.90
32536;DHT22;18974;50.838;4.636;2023-04-15T02:38:42;9.70;99.90
32536;DHT22;18974;50.838;4.636;2023-04-15T02:41:08;9.70;99.90
32536;DHT22;18974;50.838;4.636;2023-04-15T02:43:35;9.70;99.90
32536;DHT22;18974;50.838;4.636;2023-04-15T02:46:00;9.70;99.90
32536;DHT22;18974;50.838;4.636;2023-04-15T02:48:26;9.70;99.90
32536;DHT22;18974;50.838;4.636;2023-04-15T02:50:51;9.60;99.90
32536;DHT22;18974;50.838;4.636;2023-04-15T02:53:17;9.60;99.90
32536;DHT22;18974;50.838;4.636;2023-04-15T02:55:44;9.70;99.90
32536;DHT22;18974;50.838;4.636;2023-04-15T02:58:10;9.70;99.90
32536;DHT22;18974;50.838;4.636;2023-04-15T03:00:36;9.70;99.90
32536;DHT22;18974;50.838;4.636;2023-04-15T03:03:03;9.80;99.90
32536;DHT22;18974;50.838;4.636;2023-04-15T03:05:29;9.80;99.90
32536;DHT22;18974;50.838;4.636;2023-04-15T03:07:55;9.70;99.90
32536;DHT22;18974;50.838;4.636;2023-04-15T03:10:20;9.60;99.90
32536;DHT22;18974;50.838;4.636;2023-04-15T03:12:46;9.60;99.90
32536;DHT22;18974;50.838;4.636;2023-04-15T03:15:12;9.70;99.90
32536;DHT22;18974;50.838;4.636;2023-04-15T03:17:38;9.80;99.90
32536;DHT22;18974;50.838;4.636;2023-04-15T03:20:04;9.80;99.90
32536;DHT22;18974;50.838;4.636;2023-04-15T03:22:31;9.70;99.90
32536;DHT22;18974;50.838;4.636;2023-04-15T03:24:56;9.70;99.90
32536;DHT22;18974;50.838;4.636;2023-04-15T03:27:22;9.70;99.90
32536;DHT22;18974;50.838;4.636;2023-04-15T03:29:48;9.70;99.90
32536;DHT22;18974;50.838;4.636;2023-04-15T03:32:14;9.60;99.90
32536;DHT22;18974;50.838;4.636;2023-04-15T03:34:40;9.60;99.90
32536;DHT22;18974;50.838;4.636;2023-04-15T03:37:06;9.70;99.90
32536;DHT22;18974;50.838;4.636;2023-04-15T03:39:33;9.80;99.90
32536;DHT22;18974;50.838;4.636;2023-04-15T03:41:58;9.70;99.90
32536;DHT22;18974;50.838;4.636;2023-04-15T03:44:27;9.60;99.90
32536;DHT22;18974;50.838;4.636;2023-04-15T03:46:53;9.50;99.90
32536;DHT22;18974;50.838;4.636;2023-04-15T03:49:19;9.60;99.90
32536;DHT22;18974;50.838;4.636;2023-04-15T03:51:45;9.70;99.90
32536;DHT22;18974;50.838;4.636;2023-04-15T03:54:11;9.60;99.90
32536;DHT22;18974;50.838;4.636;2023-04-15T03:56:38;9.60;99.90
32536;DHT22;18974;50.838;4.636;2023-04-15T03:59:04;9.70;99.90
32536;DHT22;18974;50.838;4.636;2023-04-15T04:01:30;9.60;99.90
32536;DHT22;18974;50.838;4.636;2023-04-15T04:03:56;9.70;99.90
32536;DHT22;18974;50.838;4.636;2023-04-15T04:06:22;9.50;99.90
32536;DHT22;18974;50.838;4.636;2023-04-15T04:08:47;9.70;99.90
32536;DHT22;18974;50.838;4.636;2023-04-15T04:11:13;9.60;99.90
32536;DHT22;18974;50.838;4.636;2023-04-15T04:13:39;9.70;99.90
32536;DHT22;18974;50.838;4.636;2023-04-15T04:16:05;9.70;99.90
32536;DHT22;18974;50.838;4.636;2023-04-15T04:18:31;9.60;99.90
32536;DHT22;18974;50.838;4.636;2023-04-15T04:20:57;9.60;99.90
32536;DHT22;18974;50.838;4.636;2023-04-15T04:23:23;9.60;99.90
32536;DHT22;18974;50.838;4.636;2023-04-15T04:25:48;9.60;99.90
32536;DHT22;18974;50.838;4.636;2023-04-15T04:28:14;9.60;99.90
32536;DHT22;18974;50.838;4.636;2023-04-15T04:30:40;9.60;99.90
32536;DHT22;18974;50.838;4.636;2023-04-15T04:33:06;9.60;99.90
32536;DHT22;18974;50.838;4.636;2023-04-15T04:35:31;9.60;99.90
32536;DHT22;18974;50.838;4.636;2023-04-15T04:37:59;9.70;99.90
32536;DHT22;18974;50.838;4.636;2023-04-15T04:40:25;9.70;99.90
32536;DHT22;18974;50.838;4.636;2023-04-15T04:42:52;9.60;99.90
32536;DHT22;18974;50.838;4.636;2023-04-15T04:45:18;9.60;99.90
32536;DHT22;18974;50.838;4.636;2023-04-15T04:47:44;9.60;99.90
32536;DHT22;18974;50.838;4.636;2023-04-15T04:50:11;9.60;99.90
32536;DHT22;18974;50.838;4.636;2023-04-15T04:52:37;9.60;99.90
32536;DHT22;18974;50.838;4.636;2023-04-15T04:55:03;9.70;99.90
32536;DHT22;18974;50.838;4.636;2023-04-15T04:57:28;9.60;99.90
32536;DHT22;18974;50.838;4.636;2023-04-15T04:59:54;9.60;99.90
32536;DHT22;18974;50.838;4.636;2023-04-15T05:02:20;9.60;99.90
32536;DHT22;18974;50.838;4.636;2023-04-15T05:04:46;9.60;99.90
32536;DHT22;18974;50.838;4.636;2023-04-15T05:07:11;9.70;99.90
32536;DHT22;18974;50.838;4.636;2023-04-15T05:09:37;9.60;99.90
32536;DHT22;18974;50.838;4.636;2023-04-15T05:12:03;9.60;99.90
32536;DHT22;18974;50.838;4.636;2023-04-15T05:14:29;9.60;99.90
32536;DHT22;18974;50.838;4.636;2023-04-15T05:16:55;9.70;99.90
32536;DHT22;18974;50.838;4.636;2023-04-15T05:19:21;9.70;99.90
32536;DHT22;18974;50.838;4.636;2023-04-15T05:21:46;9.70;99.90
32536;DHT22;18974;50.838;4.636;2023-04-15T05:24:12;9.70;99.90
32536;DHT22;18974;50.838;4.636;2023-04-15T05:26:38;9.70;99.90
32536;DHT22;18974;50.838;4.636;2023-04-15T05:29:03;9.70;99.90
32536;DHT22;18974;50.838;4.636;2023-04-15T05:31:29;9.70;99.90
32536;DHT22;18974;50.838;4.636;2023-04-15T05:33:55;9.80;99.90
32536;DHT22;18974;50.838;4.636;2023-04-15T05:36:20;9.70;99.90
32536;DHT22;18974;50.838;4.636;2023-04-15T05:38:46;9.60;99.90
32536;DHT22;18974;50.838;4.636;2023-04-15T05:41:12;9.50;99.90
32536;DHT22;18974;50.838;4.636;2023-04-15T05:43:40;9.50;99.90
32536;DHT22;18974;50.838;4.636;2023-04-15T05:46:05;9.60;99.90
32536;DHT22;18974;50.838;4.636;2023-04-15T05:48:32;9.60;99.90
32536;DHT22;18974;50.838;4.636;2023-04-15T05:50:59;9.70;99.90
32536;DHT22;18974;50.838;4.636;2023-04-15T05:53:25;9.70;99.90
32536;DHT22;18974;50.838;4.636;2023-04-15T05:55:51;9.80;99.90
32536;DHT22;18974;50.838;4.636;2023-04-15T05:58:16;9.80;99.90
32536;DHT22;18974;50.838;4.636;2023-04-15T06:00:42;9.90;99.90
32536;DHT22;18974;50.838;4.636;2023-04-15T06:03:09;9.90;99.90
32536;DHT22;18974;50.838;4.636;2023-04-15T06:05:35;10.00;99.90
32536;DHT22;18974;50.838;4.636;2023-04-15T06:08:01;10.00;99.90
32536;DHT22;18974;50.838;4.636;2023-04-15T06:10:27;10.00;99.90
32536;DHT22;18974;50.838;4.636;2023-04-15T06:12:52;10.00;99.90
32536;DHT22;18974;50.838;4.636;2023-04-15T06:15:18;10.10;99.90
32536;DHT22;18974;50.838;4.636;2023-04-15T06:17:44;10.10;99.90
32536;DHT22;18974;50.838;4.636;2023-04-15T06:20:10;10.20;99.90
32536;DHT22;18974;50.838;4.636;2023-04-15T06:22:36;10.20;99.90
32536;DHT22;18974;50.838;4.636;2023-04-15T06:25:03;10.20;99.90
32536;DHT22;18974;50.838;4.636;2023-04-15T06:27:29;10.30;99.90
32536;DHT22;18974;50.838;4.636;2023-04-15T06:29:55;10.20;99.90
32536;DHT22;18974;50.838;4.636;2023-04-15T06:32:21;10.20;99.90
32536;DHT22;18974;50.838;4.636;2023-04-15T06:34:46;10.30;99.90
32536;DHT22;18974;50.838;4.636;2023-04-15T06:37:12;10.30;99.90
32536;DHT22;18974;50.838;4.636;2023-04-15T06:39:41;10.30;99.90
32536;DHT22;18974;50.838;4.636;2023-04-15T06:42:09;10.40;99.90
32536;DHT22;18974;50.838;4.636;2023-04-15T06:44:35;10.50;99.90
32536;DHT22;18974;50.838;4.636;2023-04-15T06:47:01;10.50;99.90
32536;DHT22;18974;50.838;4.636;2023-04-15T06:49:27;10.70;99.90
32536;DHT22;18974;50.838;4.636;2023-04-15T06:51:53;10.80;99.90
32536;DHT22;18974;50.838;4.636;2023-04-15T06:54:18;10.90;99.90
32536;DHT22;18974;50.838;4.636;2023-04-15T06:56:44;10.90;99.90
32536;DHT22;18974;50.838;4.636;2023-04-15T06:59:10;11.10;99.90
32536;DHT22;18974;50.838;4.636;2023-04-15T07:01:35;11.20;99.90
32536;DHT22;18974;50.838;4.636;2023-04-15T07:04:01;11.30;99.90
32536;DHT22;18974;50.838;4.636;2023-04-15T07:06:27;11.40;99.90
32536;DHT22;18974;50.838;4.636;2023-04-15T07:08:52;11.60;99.90
32536;DHT22;18974;50.838;4.636;2023-04-15T07:11:19;11.90;99.90
32536;DHT22;18974;50.838;4.636;2023-04-15T07:13:45;12.00;99.90
32536;DHT22;18974;50.838;4.636;2023-04-15T07:16:11;12.20;99.90
32536;DHT22;18974;50.838;4.636;2023-04-15T07:18:37;12.30;99.90
32536;DHT22;18974;50.838;4.636;2023-04-15T07:21:03;12.50;99.90
32536;DHT22;18974;50.838;4.636;2023-04-15T07:23:28;12.50;99.90
32536;DHT22;18974;50.838;4.636;2023-04-15T07:25:54;12.50;99.90
32536;DHT22;18974;50.838;4.636;2023-04-15T07:28:20;12.50;99.90
32536;DHT22;18974;50.838;4.636;2023-04-15T07:30:45;12.50;99.90
32536;DHT22;18974;50.838;4.636;2023-04-15T07:33:11;12.50;99.90
32536;DHT22;18974;50.838;4.636;2023-04-15T07:35:37;12.50;99.90
32536;DHT22;18974;50.838;4.636;2023-04-15T07:38:02;12.50;99.90
32536;DHT22;18974;50.838;4.636;2023-04-15T07:40:28;12.40;99.90
32536;DHT22;18974;50.838;4.636;2023-04-15T07:42:55;12.40;99.90
32536;DHT22;18974;50.838;4.636;2023-04-15T07:45:21;12.50;99.90
32536;DHT22;18974;50.838;4.636;2023-04-15T07:47:47;12.50;99.90
32536;DHT22;18974;50.838;4.636;2023-04-15T07:50:13;12.50;99.90
32536;DHT22;18974;50.838;4.636;2023-04-15T07:52:39;12.50;99.90
32536;DHT22;18974;50.838;4.636;2023-04-15T07:55:05;12.60;99.90
32536;DHT22;18974;50.838;4.636;2023-04-15T07:57:33;12.60;99.90
32536;DHT22;18974;50.838;4.636;2023-04-15T07:59:59;12.70;99.90
32536;DHT22;18974;50.838;4.636;2023-04-15T08:02:25;12.80;99.90
32536;DHT22;18974;50.838;4.636;2023-04-15T08:04:50;12.90;99.90
32536;DHT22;18974;50.838;4.636;2023-04-15T08:07:17;12.90;99.90
32536;DHT22;18974;50.838;4.636;2023-04-15T08:09:43;13.00;99.90
32536;DHT22;18974;50.838;4.636;2023-04-15T08:12:09;13.10;99.90
32536;DHT22;18974;50.838;4.636;2023-04-15T08:14:38;13.40;99.90
32536;DHT22;18974;50.838;4.636;2023-04-15T08:17:04;13.70;99.90
32536;DHT22;18974;50.838;4.636;2023-04-15T08:19:30;13.90;99.90
32536;DHT22;18974;50.838;4.636;2023-04-15T08:21:55;14.30;99.90
32536;DHT22;18974;50.838;4.636;2023-04-15T08:24:22;14.60;99.90
32536;DHT22;18974;50.838;4.636;2023-04-15T08:26:48;14.70;99.90
32536;DHT22;18974;50.838;4.636;2023-04-15T08:29:14;14.70;99.90
32536;DHT22;18974;50.838;4.636;2023-04-15T08:31:40;14.90;99.90
32536;DHT22;18974;50.838;4.636;2023-04-15T08:34:06;15.10;99.90
32536;DHT22;18974;50.838;4.636;2023-04-15T08:36:31;15.10;99.90
32536;DHT22;18974;50.838;4.636;2023-04-15T08:38:58;15.20;99.90
32536;DHT22;18974;50.838;4.636;2023-04-15T08:41:25;15.30;99.90
32536;DHT22;18974;50.838;4.636;2023-04-15T08:44:01;15.30;99.90
32536;DHT22;18974;50.838;4.636;2023-04-15T08:46:30;15.30;99.90
32536;DHT22;18974;50.838;4.636;2023-04-15T08:48:56;15.40;99.90
32536;DHT22;18974;50.838;4.636;2023-04-15T08:51:23;15.50;99.90
32536;DHT22;18974;50.838;4.636;2023-04-15T08:53:49;15.50;99.90
32536;DHT22;18974;50.838;4.636;2023-04-15T08:56:15;15.50;99.90
32536;DHT22;18974;50.838;4.636;2023-04-15T08:58:43;15.60;99.90
32536;DHT22;18974;50.838;4.636;2023-04-15T09:01:10;15.80;99.90
32536;DHT22;18974;50.838;4.636;2023-04-15T09:03:36;15.90;99.90
32536;DHT22;18974;50.838;4.636;2023-04-15T09:06:03;15.90;99.90
32536;DHT22;18974;50.838;4.636;2023-04-15T09:08:30;16.00;99.90
32536;DHT22;18974;50.838;4.636;2023-04-15T09:10:56;16.10;99.90
32536;DHT22;18974;50.838;4.636;2023-04-15T09:13:21;16.10;99.90
32536;DHT22;18974;50.838;4.636;2023-04-15T09:15:47;16.20;99.90
32536;DHT22;18974;50.838;4.636;2023-04-15T09:18:13;16.20;99.90
32536;DHT22;18974;50.838;4.636;2023-04-15T09:20:52;16.00;99.90
32536;DHT22;18974;50.838;4.636;2023-04-15T09:23:18;16.00;99.90
32536;DHT22;18974;50.838;4.636;2023-04-15T09:25:44;16.00;99.90
32536;DHT22;18974;50.838;4.636;2023-04-15T09:28:10;16.00;99.90
32536;DHT22;18974;50.838;4.636;2023-04-15T09:30:36;16.00;99.90
32536;DHT22;18974;50.838;4.636;2023-04-15T09:33:03;16.00;99.90
32536;DHT22;18974;50.838;4.636;2023-04-15T09:35:33;16.00;99.90
32536;DHT22;18974;50.838;4.636;2023-04-15T09:38:08;16.10;99.90
32536;DHT22;18974;50.838;4.636;2023-04-15T09:40:39;16.20;99.90
32536;DHT22;18974;50.838;4.636;2023-04-15T09:43:06;16.30;99.90
32536;DHT22;18974;50.838;4.636;2023-04-15T09:45:33;16.40;99.90
32536;DHT22;18974;50.838;4.636;2023-04-15T09:50:47;16.40;99.90
32536;DHT22;18974;50.838;4.636;2023-04-15T09:53:18;16.40;99.90
32536;DHT22;18974;50.838;4.636;2023-04-15T09:55:52;16.50;99.90
32536;DHT22;18974;50.838;4.636;2023-04-15T09:58:23;16.50;99.90
32536;DHT22;18974;50.838;4.636;2023-04-15T10:00:50;16.50;99.90
32536;DHT22;18974;50.838;4.636;2023-04-15T10:03:21;16.60;99.90
32536;DHT22;18974;50.838;4.636;2023-04-15T10:05:48;16.60;99.90
32536;DHT22;18974;50.838;4.636;2023-04-15T10:08:19;16.60;99.90
32536;DHT22;18974;50.838;4.636;2023-04-15T10:10:47;16.50;99.30
32536;DHT22;18974;50.838;4.636;2023-04-15T10:13:16;16.60;99.90
32536;DHT22;18974;50.838;4.636;2023-04-15T10:15:44;16.70;99.30
32536;DHT22;18974;50.838;4.636;2023-04-15T10:18:15;16.80;99.90
32536;DHT22;18974;50.838;4.636;2023-04-15T10:20:42;16.80;99.90
32536;DHT22;18974;50.838;4.636;2023-04-15T10:23:08;16.90;99.90
32536;DHT22;18974;50.838;4.636;2023-04-15T10:25:35;17.00;99.90
32536;DHT22;18974;50.838;4.636;2023-04-15T10:28:02;17.10;99.30
32536;DHT22;18974;50.838;4.636;2023-04-15T10:30:28;17.10;98.70
32536;DHT22;18974;50.838;4.636;2023-04-15T10:32:56;17.00;96.70
32536;DHT22;18974;50.838;4.636;2023-04-15T10:35:22;17.00;97.40
32536;DHT22;18974;50.838;4.636;2023-04-15T10:37:48;16.80;97.60
32536;DHT22;18974;50.838;4.636;2023-04-15T10:40:31;16.80;98.10
32536;DHT22;18974;50.838;4.636;2023-04-15T10:43:01;17.00;97.50
32536;DHT22;18974;50.838;4.636;2023-04-15T10:45:35;17.10;98.40
32536;DHT22;18974;50.838;4.636;2023-04-15T10:48:03;17.30;97.00
32536;DHT22;18974;50.838;4.636;2023-04-15T10:50:30;17.40;96.20
32536;DHT22;18974;50.838;4.636;2023-04-15T10:52:57;17.60;97.10
32536;DHT22;18974;50.838;4.636;2023-04-15T10:55:25;17.70;97.00
32536;DHT22;18974;50.838;4.636;2023-04-15T10:57:57;17.60;96.90
32536;DHT22;18974;50.838;4.636;2023-04-15T11:00:25;17.40;94.20
32536;DHT22;18974;50.838;4.636;2023-04-15T11:02:53;17.30;94.40
32536;DHT22;18974;50.838;4.636;2023-04-15T11:05:22;17.40;96.10
32536;DHT22;18974;50.838;4.636;2023-04-15T11:07:53;17.50;96.20
32536;DHT22;18974;50.838;4.636;2023-04-15T11:12:52;17.80;96.30
32536;DHT22;18974;50.838;4.636;2023-04-15T11:15:28;17.80;96.30
32536;DHT22;18974;50.838;4.636;2023-04-15T11:18:11;17.80;95.20
32536;DHT22;18974;50.838;4.636;2023-04-15T11:20:38;17.80;92.40
32536;DHT22;18974;50.838;4.636;2023-04-15T11:23:04;17.70;90.60
32536;DHT22;18974;50.838;4.636;2023-04-15T11:25:32;17.80;92.00
32536;DHT22;18974;50.838;4.636;2023-04-15T11:28:00;17.70;90.80
32536;DHT22;18974;50.838;4.636;2023-04-15T11:30:30;17.60;92.10
32536;DHT22;18974;50.838;4.636;2023-04-15T11:32:58;17.60;92.00
32536;DHT22;18974;50.838;4.636;2023-04-15T11:35:25;17.70;90.00
32536;DHT22;18974;50.838;4.636;2023-04-15T11:37:51;17.60;85.50
32536;DHT22;18974;50.838;4.636;2023-04-15T11:40:25;17.50;83.70
32536;DHT22;18974;50.838;4.636;2023-04-15T11:45:33;17.30;89.50
32536;DHT22;18974;50.838;4.636;2023-04-15T11:48:10;17.20;90.20
32536;DHT22;18974;50.838;4.636;2023-04-15T11:50:37;17.30;88.50
32536;DHT22;18974;50.838;4.636;2023-04-15T11:53:06;17.40;90.00
32536;DHT22;18974;50.838;4.636;2023-04-15T11:55:44;17.50;90.80
32536;DHT22;18974;50.838;4.636;2023-04-15T11:58:11;17.60;89.60
32536;DHT22;18974;50.838;4.636;2023-04-15T12:00:39;17.70;89.80
32536;DHT22;18974;50.838;4.636;2023-04-15T12:11:34;18.00;89.70
32536;DHT22;18974;50.838;4.636;2023-04-15T12:16:34;18.40;90.20
32536;DHT22;18974;50.838;4.636;2023-04-15T12:19:04;18.20;89.60
32536;DHT22;18974;50.838;4.636;2023-04-15T12:21:34;18.20;90.50
32536;DHT22;18974;50.838;4.636;2023-04-15T12:24:03;18.20;86.60
32536;DHT22;18974;50.838;4.636;2023-04-15T12:29:06;18.20;84.10
32536;DHT22;18974;50.838;4.636;2023-04-15T12:31:35;18.20;86.60
32536;DHT22;18974;50.838;4.636;2023-04-15T12:34:02;18.20;87.10
32536;DHT22;18974;50.838;4.636;2023-04-15T12:36:29;18.20;84.70
32536;DHT22;18974;50.838;4.636;2023-04-15T12:39:03;18.20;86.00
32536;DHT22;18974;50.838;4.636;2023-04-15T12:41:30;18.10;87.00
32536;DHT22;18974;50.838;4.636;2023-04-15T12:43:55;18.20;88.50
32536;DHT22;18974;50.838;4.636;2023-04-15T12:46:21;18.30;85.60
32536;DHT22;18974;50.838;4.636;2023-04-15T12:48:47;18.30;83.80
32536;DHT22;18974;50.838;4.636;2023-04-15T12:51:13;18.20;79.50
32536;DHT22;18974;50.838;4.636;2023-04-15T12:53:39;18.20;78.90
32536;DHT22;18974;50.838;4.636;2023-04-15T12:56:05;18.20;78.50
32536;DHT22;18974;50.838;4.636;2023-04-15T12:58:31;18.20;80.80
32536;DHT22;18974;50.838;4.636;2023-04-15T13:00:56;18.40;80.50
32536;DHT22;18974;50.838;4.636;2023-04-15T13:03:23;18.50;80.50
32536;DHT22;18974;50.838;4.636;2023-04-15T13:05:49;18.50;79.40
32536;DHT22;18974;50.838;4.636;2023-04-15T13:08:15;18.30;80.90
32536;DHT22;18974;50.838;4.636;2023-04-15T13:10:41;18.40;80.30
32536;DHT22;18974;50.838;4.636;2023-04-15T13:13:07;18.40;83.70
32536;DHT22;18974;50.838;4.636;2023-04-15T13:15:33;18.10;81.50
32536;DHT22;18974;50.838;4.636;2023-04-15T13:17:59;17.90;85.00
32536;DHT22;18974;50.838;4.636;2023-04-15T13:20:25;17.90;84.10
32536;DHT22;18974;50.838;4.636;2023-04-15T13:22:52;17.70;86.00
32536;DHT22;18974;50.838;4.636;2023-04-15T13:25:18;17.70;84.20
32536;DHT22;18974;50.838;4.636;2023-04-15T13:27:44;17.70;82.60
32536;DHT22;18974;50.838;4.636;2023-04-15T13:30:10;17.80;84.30
32536;DHT22;18974;50.838;4.636;2023-04-15T13:32:36;17.90;84.10
32536;DHT22;18974;50.838;4.636;2023-04-15T13:35:02;17.90;82.20
32536;DHT22;18974;50.838;4.636;2023-04-15T13:37:28;17.90;84.00
32536;DHT22;18974;50.838;4.636;2023-04-15T13:39:55;17.90;85.20
32536;DHT22;18974;50.838;4.636;2023-04-15T13:42:24;17.90;85.50
32536;DHT22;18974;50.838;4.636;2023-04-15T13:44:50;18.00;85.40
32536;DHT22;18974;50.838;4.636;2023-04-15T13:47:17;18.10;88.20
32536;DHT22;18974;50.838;4.636;2023-04-15T13:49:43;18.30;85.90
32536;DHT22;18974;50.838;4.636;2023-04-15T13:52:09;18.20;86.70
32536;DHT22;18974;50.838;4.636;2023-04-15T13:54:35;18.00;87.20
32536;DHT22;18974;50.838;4.636;2023-04-15T13:57:01;18.10;87.50
32536;DHT22;18974;50.838;4.636;2023-04-15T13:59:26;18.20;88.00
32536;DHT22;18974;50.838;4.636;2023-04-15T14:01:52;18.30;85.90
32536;DHT22;18974;50.838;4.636;2023-04-15T14:04:18;18.50;88.10
32536;DHT22;18974;50.838;4.636;2023-04-15T14:06:43;18.50;89.00
32536;DHT22;18974;50.838;4.636;2023-04-15T14:09:09;18.60;90.20
32536;DHT22;18974;50.838;4.636;2023-04-15T14:11:37;18.50;89.90
32536;DHT22;18974;50.838;4.636;2023-04-15T14:14:03;18.40;87.40
32536;DHT22;18974;50.838;4.636;2023-04-15T14:16:29;18.50;86.70
32536;DHT22;18974;50.838;4.636;2023-04-15T14:18:56;18.50;85.30
32536;DHT22;18974;50.838;4.636;2023-04-15T14:21:22;18.40;87.00
32536;DHT22;18974;50.838;4.636;2023-04-15T14:23:48;18.10;88.30
32536;DHT22;18974;50.838;4.636;2023-04-15T14:26:14;18.20;90.00
32536;DHT22;18974;50.838;4.636;2023-04-15T14:28:39;18.10;90.30
32536;DHT22;18974;50.838;4.636;2023-04-15T14:31:05;18.20;87.90
32536;DHT22;18974;50.838;4.636;2023-04-15T14:33:31;18.20;86.50
32536;DHT22;18974;50.838;4.636;2023-04-15T14:35:56;18.20;91.00
32536;DHT22;18974;50.838;4.636;2023-04-15T14:38:22;18.20;88.90
32536;DHT22;18974;50.838;4.636;2023-04-15T14:40:48;18.20;84.00
32536;DHT22;18974;50.838;4.636;2023-04-15T14:43:13;17.90;87.00
32536;DHT22;18974;50.838;4.636;2023-04-15T14:45:39;17.80;88.60
32536;DHT22;18974;50.838;4.636;2023-04-15T14:48:05;17.70;88.80
32536;DHT22;18974;50.838;4.636;2023-04-15T14:50:34;17.70;90.00
32536;DHT22;18974;50.838;4.636;2023-04-15T14:53:00;17.50;90.00
32536;DHT22;18974;50.838;4.636;2023-04-15T14:55:26;17.50;90.70
32536;DHT22;18974;50.838;4.636;2023-04-15T14:57:52;17.40;90.80
32536;DHT22;18974;50.838;4.636;2023-04-15T15:00:17;17.30;90.00
32536;DHT22;18974;50.838;4.636;2023-04-15T15:02:43;17.10;89.80
32536;DHT22;18974;50.838;4.636;2023-04-15T15:05:09;17.00;90.00
32536;DHT22;18974;50.838;4.636;2023-04-15T15:07:36;17.00;85.40
32536;DHT22;18974;50.838;4.636;2023-04-15T15:10:03;16.90;84.10
32536;DHT22;18974;50.838;4.636;2023-04-15T15:12:28;16.90;86.50
32536;DHT22;18974;50.838;4.636;2023-04-15T15:14:54;17.00;90.00
32536;DHT22;18974;50.838;4.636;2023-04-15T15:17:20;17.00;90.60
32536;DHT22;18974;50.838;4.636;2023-04-15T15:19:46;16.80;91.80
32536;DHT22;18974;50.838;4.636;2023-04-15T15:22:12;16.60;88.20
32536;DHT22;18974;50.838;4.636;2023-04-15T15:24:38;16.70;90.20
32536;DHT22;18974;50.838;4.636;2023-04-15T15:27:03;16.60;88.20
32536;DHT22;18974;50.838;4.636;2023-04-15T15:29:29;16.60;90.50
32536;DHT22;18974;50.838;4.636;2023-04-15T15:31:55;16.60;90.90
32536;DHT22;18974;50.838;4.636;2023-04-15T15:34:20;16.50;90.00
32536;DHT22;18974;50.838;4.636;2023-04-15T15:36:47;16.30;91.60
32536;DHT22;18974;50.838;4.636;2023-04-15T15:39:13;16.30;91.40
32536;DHT22;18974;50.838;4.636;2023-04-15T15:41:38;16.20;91.60
32536;DHT22;18974;50.838;4.636;2023-04-15T15:44:04;16.20;92.60
32536;DHT22;18974;50.838;4.636;2023-04-15T15:46:29;16.30;92.10
32536;DHT22;18974;50.838;4.636;2023-04-15T15:48:58;16.40;92.30
32536;DHT22;18974;50.838;4.636;2023-04-15T15:51:23;16.30;93.20